sensor_id;sensor_type;location;lat;lon;timestamp;temperature;humidity
1411;DHT22;700;51.906;8.404;2024-03-29T00:04:57;9.80;99.90
1411;DHT22;700;51.906;8.404;2024-03-29T00:10:04;9.80;99.90
1411;DHT22;700;51.906;8.404;2024-03-29T00:15:05;9.50;99.90
1411;DHT22;700;51.906;8.404;2024-03-29T00:20:08;9.60;99.90
1411;DHT22;700;51.906;8.404;2024-03-29T00:25:09;9.60;99.90
1411;DHT22;700;51.906;8.404;2024-03-29T00:30:11;9.60;99.90
1411;DHT22;700;51.906;8.404;2024-03-29T00:35:12;9.60;99.90
1411;DHT22;700;51.906;8.404;2024-03-29T00:40:15;9.30;99.90
1411;DHT22;700;51.906;8.404;2024-03-29T00:45:16;9.40;99.90
1411;DHT22;700;51.906;8.404;2024-03-29T00:50:17;9.30;99.90
1411;DHT22;700;51.906;8.404;2024-03-29T00:55:20;9.50;99.90
1411;DHT22;700;51.906;8.404;2024-03-29T01:00:25;9.40;99.90
1411;DHT22;700;51.906;8.404;2024-03-29T01:05:25;9.60;99.90
1411;DHT22;700;51.906;8.404;2024-03-29T01:10:26;9.60;99.90
1411;DHT22;700;51.906;8.404;2024-03-29T01:15:27;9.70;99.90
1411;DHT22;700;51.906;8.404;2024-03-29T01:20:30;9.60;99.90
1411;DHT22;700;51.906;8.404;2024-03-29T01:25:35;9.60;99.90
1411;DHT22;700;51.906;8.404;2024-03-29T01:30:36;9.60;99.90
1411;DHT22;700;51.906;8.404;2024-03-29T01:35:39;9.60;99.90
1411;DHT22;700;51.906;8.404;2024-03-29T01:40:42;9.60;99.90
1411;DHT22;700;51.906;8.404;2024-03-29T01:45:48;9.50;99.90
1411;DHT22;700;51.906;8.404;2024-03-29T01:50:54;9.70;99.90
1411;DHT22;700;51.906;8.404;2024-03-29T01:55:56;9.80;99.90
1411;DHT22;700;51.906;8.404;2024-03-29T02:00:59;9.70;99.90
1411;DHT22;700;51.906;8.404;2024-03-29T02:06:00;9.70;99.90
1411;DHT22;700;51.906;8.404;2024-03-29T02:11:03;9.50;99.90
1411;DHT22;700;51.906;8.404;2024-03-29T02:16:04;9.60;99.90
1411;DHT22;700;51.906;8.404;2024-03-29T02:21:04;9.50;99.90
1411;DHT22;700;51.906;8.404;2024-03-29T02:26:05;9.60;99.90
1411;DHT22;700;51.906;8.404;2024-03-29T02:31:15;9.60;99.90
1411;DHT22;700;51.906;8.404;2024-03-29T02:36:16;9.70;99.90
1411;DHT22;700;51.906;8.404;2024-03-29T02:41:19;9.80;99.90
1411;DHT22;700;51.906;8.404;2024-03-29T02:46:19;9.80;99.90
1411;DHT22;700;51.906;8.404;2024-03-29T02:51:20;9.80;99.90
1411;DHT22;700;51.906;8.404;2024-03-29T02:56:30;9.80;99.90
1411;DHT22;700;51.906;8.404;2024-03-29T03:01:31;9.90;99.90
1411;DHT22;700;51.906;8.404;2024-03-29T03:06:31;9.90;99.90
1411;DHT22;700;51.906;8.404;2024-03-29T03:11:32;9.90;99.90
1411;DHT22;700;51.906;8.404;2024-03-29T03:16:33;10.00;99.90
1411;DHT22;700;51.906;8.404;2024-03-29T03:21:35;9.90;99.90
1411;DHT22;700;51.906;8.404;2024-03-29T03:26:36;9.90;99.90
1411;DHT22;700;51.906;8.404;2024-03-29T03:31:37;9.90;99.90
1411;DHT22;700;51.906;8.404;2024-03-29T03:36:37;9.90;99.90
1411;DHT22;700;51.906;8.404;2024-03-29T03:41:43;9.90;99.90
1411;DHT22;700;51.906;8.404;2024-03-29T03:46:44;9.80;99.90
1411;DHT22;700;51.906;8.404;2024-03-29T03:51:44;9.80;99.90
1411;DHT22;700;51.906;8.404;2024-03-29T03:56:45;10.10;99.90
1411;DHT22;700;51.906;8.404;2024-03-29T04:01:51;10.30;99.90
1411;DHT22;700;51.906;8.404;2024-03-29T04:06:52;10.20;99.90
1411;DHT22;700;51.906;8.404;2024-03-29T04:11:56;10.20;99.90
1411;DHT22;700;51.906;8.404;2024-03-29T04:16:56;10.10;99.90
1411;DHT22;700;51.906;8.404;2024-03-29T04:22:00;10.00;99.90
1411;DHT22;700;51.906;8.404;2024-03-29T04:27:01;10.30;99.90
1411;DHT22;700;51.906;8.404;2024-03-29T04:32:04;10.30;99.90
1411;DHT22;700;51.906;8.404;2024-03-29T04:37:15;10.70;99.90
1411;DHT22;700;51.906;8.404;2024-03-29T04:42:18;10.80;99.90
1411;DHT22;700;51.906;8.404;2024-03-29T04:47:21;10.90;99.90
1411;DHT22;700;51.906;8.404;2024-03-29T04:52:26;10.80;99.90
1411;DHT22;700;51.906;8.404;2024-03-29T04:57:27;10.60;99.90
1411;DHT22;700;51.906;8.404;2024-03-29T05:02:27;10.50;99.90
1411;DHT22;700;51.906;8.404;2024-03-29T05:07:28;10.30;99.90
1411;DHT22;700;51.906;8.404;2024-03-29T05:12:29;10.60;99.90
1411;DHT22;700;51.906;8.404;2024-03-29T05:17:32;10.30;99.90
1411;DHT22;700;51.906;8.404;2024-03-29T05:22:34;10.40;99.90
1411;DHT22;700;51.906;8.404;2024-03-29T05:27:39;10.50;99.90
1411;DHT22;700;51.906;8.404;2024-03-29T05:32:40;10.70;99.90
1411;DHT22;700;51.906;8.404;2024-03-29T05:37:43;10.90;99.90
1411;DHT22;700;51.906;8.404;2024-03-29T05:42:49;11.10;99.90
1411;DHT22;700;51.906;8.404;2024-03-29T05:47:51;11.00;99.90
1411;DHT22;700;51.906;8.404;2024-03-29T05:52:54;11.30;99.90
1411;DHT22;700;51.906;8.404;2024-03-29T05:57:57;11.20;99.90
1411;DHT22;700;51.906;8.404;2024-03-29T06:02:57;11.50;99.90
1411;DHT22;700;51.906;8.404;2024-03-29T06:08:05;11.40;99.90
1411;DHT22;700;51.906;8.404;2024-03-29T06:13:08;11.50;99.90
1411;DHT22;700;51.906;8.404;2024-03-29T06:18:18;11.70;99.90
1411;DHT22;700;51.906;8.404;2024-03-29T06:23:21;11.80;99.90
1411;DHT22;700;51.906;8.404;2024-03-29T06:28:26;11.90;99.90
1411;DHT22;700;51.906;8.404;2024-03-29T06:33:26;11.90;99.90
1411;DHT22;700;51.906;8.404;2024-03-29T06:38:27;11.90;99.90
1411;DHT22;700;51.906;8.404;2024-03-29T06:43:28;11.80;99.90
1411;DHT22;700;51.906;8.404;2024-03-29T06:48:33;11.70;99.90
1411;DHT22;700;51.906;8.404;2024-03-29T06:53:38;11.20;99.90
1411;DHT22;700;51.906;8.404;2024-03-29T06:58:39;11.00;99.90
1411;DHT22;700;51.906;8.404;2024-03-29T07:03:40;10.60;99.90
1411;DHT22;700;51.906;8.404;2024-03-29T07:08:43;10.40;99.90
1411;DHT22;700;51.906;8.404;2024-03-29T07:13:46;10.20;99.90
1411;DHT22;700;51.906;8.404;2024-03-29T07:18:47;10.20;99.90
1411;DHT22;700;51.906;8.404;2024-03-29T07:23:47;10.40;99.90
1411;DHT22;700;51.906;8.404;2024-03-29T07:28:51;10.70;99.90
1411;DHT22;700;51.906;8.404;2024-03-29T07:33:55;10.90;99.90
1411;DHT22;700;51.906;8.404;2024-03-29T07:38:55;10.90;99.90
1411;DHT22;700;51.906;8.404;2024-03-29T07:43:58;10.90;99.90
1411;DHT22;700;51.906;8.404;2024-03-29T07:49:04;10.90;99.90
1411;DHT22;700;51.906;8.404;2024-03-29T07:54:08;11.00;99.90
1411;DHT22;700;51.906;8.404;2024-03-29T07:59:09;10.90;99.90
1411;DHT22;700;51.906;8.404;2024-03-29T08:04:09;11.00;99.90
1411;DHT22;700;51.906;8.404;2024-03-29T08:09:10;11.40;99.90
1411;DHT22;700;51.906;8.404;2024-03-29T08:14:11;11.00;99.90
1411;DHT22;700;51.906;8.404;2024-03-29T08:19:14;11.30;99.90
1411;DHT22;700;51.906;8.404;2024-03-29T08:24:16;11.20;99.90
1411;DHT22;700;51.906;8.404;2024-03-29T08:29:17;11.30;99.90
1411;DHT22;700;51.906;8.404;2024-03-29T08:34:20;11.40;99.90
1411;DHT22;700;51.906;8.404;2024-03-29T08:39:23;11.40;99.90
1411;DHT22;700;51.906;8.404;2024-03-29T08:44:24;11.50;99.90
1411;DHT22;700;51.906;8.404;2024-03-29T08:49:25;11.60;99.90
1411;DHT22;700;51.906;8.404;2024-03-29T08:54:28;11.80;99.90
1411;DHT22;700;51.906;8.404;2024-03-29T08:59:30;11.70;99.90
1411;DHT22;700;51.906;8.404;2024-03-29T09:04:31;11.80;99.90
1411;DHT22;700;51.906;8.404;2024-03-29T09:09:35;12.20;99.90
1411;DHT22;700;51.906;8.404;2024-03-29T09:14:44;12.30;99.90
1411;DHT22;700;51.906;8.404;2024-03-29T09:19:44;12.10;99.90
1411;DHT22;700;51.906;8.404;2024-03-29T09:24:45;12.20;99.90
1411;DHT22;700;51.906;8.404;2024-03-29T09:29:49;12.30;99.90
1411;DHT22;700;51.906;8.404;2024-03-29T09:34:49;12.20;99.90
1411;DHT22;700;51.906;8.404;2024-03-29T09:39:50;12.40;99.90
1411;DHT22;700;51.906;8.404;2024-03-29T09:44:51;12.90;99.90
1411;DHT22;700;51.906;8.404;2024-03-29T09:49:53;13.20;99.90
1411;DHT22;700;51.906;8.404;2024-03-29T09:54:55;13.20;99.90
1411;DHT22;700;51.906;8.404;2024-03-29T09:59:57;13.30;99.90
1411;DHT22;700;51.906;8.404;2024-03-29T10:05:01;13.60;99.90
1411;DHT22;700;51.906;8.404;2024-03-29T10:10:06;13.50;99.90
1411;DHT22;700;51.906;8.404;2024-03-29T10:15:10;13.80;99.90
1411;DHT22;700;51.906;8.404;2024-03-29T10:20:20;13.90;99.90
1411;DHT22;700;51.906;8.404;2024-03-29T10:25:23;13.90;99.90
1411;DHT22;700;51.906;8.404;2024-03-29T10:30:25;14.00;99.90
1411;DHT22;700;51.906;8.404;2024-03-29T10:35:28;14.20;99.90
1411;DHT22;700;51.906;8.404;2024-03-29T10:40:31;14.30;99.90
1411;DHT22;700;51.906;8.404;2024-03-29T10:45:36;14.20;99.90
1411;DHT22;700;51.906;8.404;2024-03-29T10:50:38;14.10;99.90
1411;DHT22;700;51.906;8.404;2024-03-29T10:55:44;13.90;99.90
1411;DHT22;700;51.906;8.404;2024-03-29T11:00:56;13.70;99.90
1411;DHT22;700;51.906;8.404;2024-03-29T11:06:02;14.10;99.90
1411;DHT22;700;51.906;8.404;2024-03-29T11:11:05;14.10;99.90
1411;DHT22;700;51.906;8.404;2024-03-29T11:16:06;14.40;99.90
1411;DHT22;700;51.906;8.404;2024-03-29T11:21:08;14.40;99.90
1411;DHT22;700;51.906;8.404;2024-03-29T11:26:10;14.60;99.90
1411;DHT22;700;51.906;8.404;2024-03-29T11:31:14;14.60;99.90
1411;DHT22;700;51.906;8.404;2024-03-29T11:36:23;14.80;99.90
1411;DHT22;700;51.906;8.404;2024-03-29T11:41:27;15.30;99.90
1411;DHT22;700;51.906;8.404;2024-03-29T11:46:30;15.10;99.90
1411;DHT22;700;51.906;8.404;2024-03-29T11:51:35;14.60;99.90
1411;DHT22;700;51.906;8.404;2024-03-29T11:56:38;14.80;99.90
1411;DHT22;700;51.906;8.404;2024-03-29T12:01:41;15.30;99.90
1411;DHT22;700;51.906;8.404;2024-03-29T12:06:44;15.80;99.90
1411;DHT22;700;51.906;8.404;2024-03-29T12:11:47;15.50;99.90
1411;DHT22;700;51.906;8.404;2024-03-29T12:16:49;15.10;99.90
1411;DHT22;700;51.906;8.404;2024-03-29T12:21:53;15.40;99.90
1411;DHT22;700;51.906;8.404;2024-03-29T12:26:57;15.30;99.90
1411;DHT22;700;51.906;8.404;2024-03-29T12:32:00;15.50;99.90
1411;DHT22;700;51.906;8.404;2024-03-29T12:37:01;15.70;99.90
1411;DHT22;700;51.906;8.404;2024-03-29T12:42:05;15.70;99.90
1411;DHT22;700;51.906;8.404;2024-03-29T12:47:15;15.80;99.90
1411;DHT22;700;51.906;8.404;2024-03-29T12:52:16;15.80;99.90
1411;DHT22;700;51.906;8.404;2024-03-29T12:57:17;15.70;99.90
1411;DHT22;700;51.906;8.404;2024-03-29T13:02:17;16.00;99.90
1411;DHT22;700;51.906;8.404;2024-03-29T13:07:20;16.90;99.90
1411;DHT22;700;51.906;8.404;2024-03-29T13:12:23;18.60;99.90
1411;DHT22;700;51.906;8.404;2024-03-29T13:17:26;18.90;99.90
1411;DHT22;700;51.906;8.404;2024-03-29T13:22:29;18.20;99.90
1411;DHT22;700;51.906;8.404;2024-03-29T13:27:29;18.20;99.90
1411;DHT22;700;51.906;8.404;2024-03-29T13:32:30;17.70;99.90
1411;DHT22;700;51.906;8.404;2024-03-29T13:37:33;17.30;99.90
1411;DHT22;700;51.906;8.404;2024-03-29T13:42:34;17.20;99.90
1411;DHT22;700;51.906;8.404;2024-03-29T13:47:37;17.10;99.90
1411;DHT22;700;51.906;8.404;2024-03-29T13:52:38;17.00;99.90
1411;DHT22;700;51.906;8.404;2024-03-29T13:57:40;17.10;99.90
1411;DHT22;700;51.906;8.404;2024-03-29T14:02:41;17.10;99.90
1411;DHT22;700;51.906;8.404;2024-03-29T14:07:42;17.00;99.90
1411;DHT22;700;51.906;8.404;2024-03-29T14:12:42;16.80;99.90
1411;DHT22;700;51.906;8.404;2024-03-29T14:17:43;17.30;99.90
1411;DHT22;700;51.906;8.404;2024-03-29T14:22:43;17.10;99.90
1411;DHT22;700;51.906;8.404;2024-03-29T14:27:48;18.20;99.90
1411;DHT22;700;51.906;8.404;2024-03-29T14:32:57;18.50;99.90
1411;DHT22;700;51.906;8.404;2024-03-29T14:37:57;18.30;99.90
1411;DHT22;700;51.906;8.404;2024-03-29T14:42:58;17.80;99.90
1411;DHT22;700;51.906;8.404;2024-03-29T14:48:01;17.80;99.90
1411;DHT22;700;51.906;8.404;2024-03-29T14:53:02;18.00;99.90
1411;DHT22;700;51.906;8.404;2024-03-29T14:58:07;17.60;99.90
1411;DHT22;700;51.906;8.404;2024-03-29T15:03:08;16.90;99.90
1411;DHT22;700;51.906;8.404;2024-03-29T15:08:09;16.20;99.90
1411;DHT22;700;51.906;8.404;2024-03-29T15:13:19;16.10;99.90
1411;DHT22;700;51.906;8.404;2024-03-29T15:18:22;16.00;99.90
1411;DHT22;700;51.906;8.404;2024-03-29T15:23:25;15.80;99.90
1411;DHT22;700;51.906;8.404;2024-03-29T15:28:31;15.90;99.90
1411;DHT22;700;51.906;8.404;2024-03-29T15:33:51;15.70;99.90
1411;DHT22;700;51.906;8.404;2024-03-29T15:38:54;15.70;99.90
1411;DHT22;700;51.906;8.404;2024-03-29T15:44:01;15.90;99.90
1411;DHT22;700;51.906;8.404;2024-03-29T15:49:04;15.50;99.90
1411;DHT22;700;51.906;8.404;2024-03-29T15:54:05;15.50;99.90
1411;DHT22;700;51.906;8.404;2024-03-29T15:59:09;15.50;99.90
1411;DHT22;700;51.906;8.404;2024-03-29T16:04:11;15.50;99.90
1411;DHT22;700;51.906;8.404;2024-03-29T16:09:12;15.60;99.90
1411;DHT22;700;51.906;8.404;2024-03-29T16:14:12;15.80;99.90
1411;DHT22;700;51.906;8.404;2024-03-29T16:19:16;16.20;99.90
1411;DHT22;700;51.906;8.404;2024-03-29T16:24:16;15.50;99.90
1411;DHT22;700;51.906;8.404;2024-03-29T16:29:21;15.50;99.90
1411;DHT22;700;51.906;8.404;2024-03-29T16:34:24;15.00;99.90
1411;DHT22;700;51.906;8.404;2024-03-29T16:39:25;14.90;99.90
1411;DHT22;700;51.906;8.404;2024-03-29T16:44:26;14.80;99.90
1411;DHT22;700;51.906;8.404;2024-03-29T16:49:28;14.70;99.90
1411;DHT22;700;51.906;8.404;2024-03-29T16:54:33;14.70;99.90
1411;DHT22;700;51.906;8.404;2024-03-29T16:59:34;14.50;99.90
1411;DHT22;700;51.906;8.404;2024-03-29T17:04:38;14.50;99.90
1411;DHT22;700;51.906;8.404;2024-03-29T17:09:40;14.60;99.90
1411;DHT22;700;51.906;8.404;2024-03-29T17:14:44;14.60;99.90
1411;DHT22;700;51.906;8.404;2024-03-29T17:19:45;14.60;99.90
1411;DHT22;700;51.906;8.404;2024-03-29T17:24:50;14.60;99.90
1411;DHT22;700;51.906;8.404;2024-03-29T17:29:51;14.40;99.90
1411;DHT22;700;51.906;8.404;2024-03-29T17:34:54;14.40;99.90
1411;DHT22;700;51.906;8.404;2024-03-29T17:39:58;14.30;99.90
1411;DHT22;700;51.906;8.404;2024-03-29T17:44:59;14.30;99.90
1411;DHT22;700;51.906;8.404;2024-03-29T17:49:59;14.40;99.90
1411;DHT22;700;51.906;8.404;2024-03-29T17:55:00;14.40;99.90
1411;DHT22;700;51.906;8.404;2024-03-29T18:00:03;14.50;99.90
1411;DHT22;700;51.906;8.404;2024-03-29T18:05:08;14.60;99.90
1411;DHT22;700;51.906;8.404;2024-03-29T18:10:11;14.70;99.90
1411;DHT22;700;51.906;8.404;2024-03-29T18:15:15;14.70;99.90
1411;DHT22;700;51.906;8.404;2024-03-29T18:20:15;14.50;99.90
1411;DHT22;700;51.906;8.404;2024-03-29T18:25:16;14.70;99.90
1411;DHT22;700;51.906;8.404;2024-03-29T18:30:16;14.70;99.90
1411;DHT22;700;51.906;8.404;2024-03-29T18:35:17;14.60;99.90
1411;DHT22;700;51.906;8.404;2024-03-29T18:40:21;14.50;99.90
1411;DHT22;700;51.906;8.404;2024-03-29T18:45:22;14.50;99.90
1411;DHT22;700;51.906;8.404;2024-03-29T18:50:22;14.50;99.90
1411;DHT22;700;51.906;8.404;2024-03-29T18:55:26;14.50;99.90
1411;DHT22;700;51.906;8.404;2024-03-29T19:00:29;14.40;99.90
1411;DHT22;700;51.906;8.404;2024-03-29T19:05:29;14.40;99.90
1411;DHT22;700;51.906;8.404;2024-03-29T19:10:30;14.40;99.90
1411;DHT22;700;51.906;8.404;2024-03-29T19:15:30;14.20;99.90
1411;DHT22;700;51.906;8.404;2024-03-29T19:20:31;14.20;99.90
1411;DHT22;700;51.906;8.404;2024-03-29T19:25:34;14.00;99.90
1411;DHT22;700;51.906;8.404;2024-03-29T19:30:35;14.30;99.90
1411;DHT22;700;51.906;8.404;2024-03-29T19:35:38;14.20;99.90
1411;DHT22;700;51.906;8.404;2024-03-29T19:40:39;14.30;99.90
1411;DHT22;700;51.906;8.404;2024-03-29T19:45:39;14.60;99.90
1411;DHT22;700;51.906;8.404;2024-03-29T19:50:43;14.70;99.90
1411;DHT22;700;51.906;8.404;2024-03-29T19:56:02;14.80;99.90
1411;DHT22;700;51.906;8.404;2024-03-29T20:01:05;14.90;99.90
1411;DHT22;700;51.906;8.404;2024-03-29T20:06:05;14.80;99.90
1411;DHT22;700;51.906;8.404;2024-03-29T20:11:12;14.80;99.90
1411;DHT22;700;51.906;8.404;2024-03-29T20:16:13;14.40;99.90
1411;DHT22;700;51.906;8.404;2024-03-29T20:21:16;14.60;99.90
1411;DHT22;700;51.906;8.404;2024-03-29T20:26:17;14.50;99.90
1411;DHT22;700;51.906;8.404;2024-03-29T20:31:20;14.50;99.90
1411;DHT22;700;51.906;8.404;2024-03-29T20:36:22;14.80;99.90
1411;DHT22;700;51.906;8.404;2024-03-29T20:41:23;14.90;99.90
1411;DHT22;700;51.906;8.404;2024-03-29T20:46:24;14.70;99.90
1411;DHT22;700;51.906;8.404;2024-03-29T20:51:27;14.60;99.90
1411;DHT22;700;51.906;8.404;2024-03-29T20:56:33;14.70;99.90
1411;DHT22;700;51.906;8.404;2024-03-29T21:01:37;14.90;99.90
1411;DHT22;700;51.906;8.404;2024-03-29T21:06:57;15.00;99.90
1411;DHT22;700;51.906;8.404;2024-03-29T21:12:01;15.10;99.90
1411;DHT22;700;51.906;8.404;2024-03-29T21:17:01;15.00;99.90
1411;DHT22;700;51.906;8.404;2024-03-29T21:22:04;14.90;99.90
1411;DHT22;700;51.906;8.404;2024-03-29T21:27:08;14.70;99.90
1411;DHT22;700;51.906;8.404;2024-03-29T21:32:11;14.80;99.90
1411;DHT22;700;51.906;8.404;2024-03-29T21:37:14;14.90;99.90
1411;DHT22;700;51.906;8.404;2024-03-29T21:42:17;15.20;99.90
1411;DHT22;700;51.906;8.404;2024-03-29T21:47:23;14.70;99.90
1411;DHT22;700;51.906;8.404;2024-03-29T21:52:26;14.90;99.90
1411;DHT22;700;51.906;8.404;2024-03-29T21:57:27;14.90;99.90
1411;DHT22;700;51.906;8.404;2024-03-29T22:02:30;14.40;99.90
1411;DHT22;700;51.906;8.404;2024-03-29T22:07:33;14.70;99.90
1411;DHT22;700;51.906;8.404;2024-03-29T22:12:33;14.60;99.90
1411;DHT22;700;51.906;8.404;2024-03-29T22:17:36;14.50;99.90
1411;DHT22;700;51.906;8.404;2024-03-29T22:22:39;14.40;99.90
1411;DHT22;700;51.906;8.404;2024-03-29T22:27:40;14.10;99.90
1411;DHT22;700;51.906;8.404;2024-03-29T22:32:40;13.90;99.90
1411;DHT22;700;51.906;8.404;2024-03-29T22:37:41;14.10;99.90
1411;DHT22;700;51.906;8.404;2024-03-29T22:42:42;13.70;99.90
1411;DHT22;700;51.906;8.404;2024-03-29T22:47:44;13.60;99.90
1411;DHT22;700;51.906;8.404;2024-03-29T22:52:47;13.70;99.90
1411;DHT22;700;51.906;8.404;2024-03-29T22:57:50;14.00;99.90
1411;DHT22;700;51.906;8.404;2024-03-29T23:02:53;14.10;99.90
1411;DHT22;700;51.906;8.404;2024-03-29T23:07:57;14.30;99.90
1411;DHT22;700;51.906;8.404;2024-03-29T23:12:58;14.40;99.90
1411;DHT22;700;51.906;8.404;2024-03-29T23:18:01;14.40;99.90
1411;DHT22;700;51.906;8.404;2024-03-29T23:23:01;14.40;99.90
1411;DHT22;700;51.906;8.404;2024-03-29T23:28:05;14.40;99.90
1411;DHT22;700;51.906;8.404;2024-03-29T23:33:11;14.50;99.90
1411;DHT22;700;51.906;8.404;2024-03-29T23:38:12;14.50;99.90
1411;DHT22;700;51.906;8.404;2024-03-29T23:43:15;14.50;99.90
1411;DHT22;700;51.906;8.404;2024-03-29T23:48:18;14.70;99.90
1411;DHT22;700;51.906;8.404;2024-03-29T23:53:18;14.60;99.90
1411;DHT22;700;51.906;8.404;2024-03-29T23:58:23;14.60;99.90
